Time;durP1;ratioP1;P1;durP2;ratioP2;P2;SDS_P1;SDS_P2;PMS_P1;PMS_P2;Temp;Humidity;BMP_temperature;BMP_pressure;BME280_temperature;BME280_humidity;BME280_pressure;Samples;Min_cycle;Max_cycle;Signal;HPM_P1;HPM_P2
2021/12/18 00:00:24;;;;;;;6.45;5.40;;;;;;;;;;5055371;28;20241;-77
2021/12/18 00:02:52;;;;;;;6.72;5.25;;;;;;;;;;5054490;28;20268;-77
2021/12/18 00:05:20;;;;;;;6.63;5.70;;;;;;;;;;5052321;28;20195;-75
2021/12/18 00:07:47;;;;;;;6.20;5.43;;;;;;;;;;5052018;28;20205;-75
2021/12/18 00:10:14;;;;;;;7.25;5.60;;;;;;;;;;5049083;28;20198;-76
2021/12/18 00:12:47;;;;;;;7.78;5.70;;;;;;;;;;5053145;28;20222;-76
2021/12/18 00:15:14;;;;;;;7.25;5.13;;;;;;;;;;5051677;28;20195;-76
2021/12/18 00:17:41;;;;;;;7.35;5.32;;;;;;;;;;5056646;28;20204;-76
2021/12/18 00:20:09;;;;;;;6.95;5.97;;;;;;;;;;5045843;28;20210;-77
2021/12/18 00:22:37;;;;;;;6.57;5.90;;;;;;;;;;5061042;28;20206;-76
2021/12/18 00:25:05;;;;;;;7.03;6.32;;;;;;;;;;5056842;28;20670;-75
2021/12/18 00:27:32;;;;;;;6.53;5.65;;;;;;;;;;5056861;28;20649;-75
2021/12/18 00:29:59;;;;;;;8.60;6.30;;;;;;;;;;5049814;28;20221;-76
2021/12/18 00:32:26;;;;;;;6.80;5.28;;;;;;;;;;5052223;28;20337;-76
2021/12/18 00:34:53;;;;;;;6.13;5.07;;;;;;;;;;5058886;28;20220;-76
2021/12/18 00:37:20;;;;;;;6.85;5.70;;;;;;;;;;5054606;28;20550;-76
2021/12/18 00:39:55;;;;;;;7.20;5.03;;;;;;;;;;5057801;28;20212;-75
2021/12/18 00:42:36;;;;;;;6.93;6.32;;;;;;;;;;5056059;28;20218;-74
2021/12/18 00:45:04;;;;;;;7.40;6.25;;;;;;;;;;5052723;28;20191;-75
2021/12/18 00:47:31;;;;;;;6.97;6.10;;;;;;;;;;5053175;28;20199;-75
2021/12/18 00:49:58;;;;;;;6.65;5.10;;;;;;;;;;5043363;28;20199;-75
2021/12/18 00:52:25;;;;;;;8.23;5.78;;;;;;;;;;5051681;28;20574;-76
2021/12/18 00:54:54;;;;;;;7.28;5.50;;;;;;;;;;5042376;28;20203;-75
2021/12/18 00:57:22;;;;;;;9.25;7.35;;;;;;;;;;5053375;28;20237;-75
2021/12/18 00:59:51;;;;;;;5.82;5.10;;;;;;;;;;5044917;28;20642;-76
2021/12/18 01:02:18;;;;;;;6.00;5.10;;;;;;;;;;5045301;28;20199;-75
2021/12/18 01:04:45;;;;;;;6.65;6.00;;;;;;;;;;5051008;28;20199;-75
2021/12/18 01:07:13;;;;;;;6.63;5.90;;;;;;;;;;5052516;28;20199;-75
2021/12/18 01:09:56;;;;;;;9.70;6.35;;;;;;;;;;5045214;28;20198;-76
2021/12/18 01:12:30;;;;;;;6.30;5.05;;;;;;;;;;5061157;28;20215;-75
2021/12/18 01:15:08;;;;;;;9.00;5.53;;;;;;;;;;5064693;28;20190;-75
2021/12/18 01:23:05;;;;;;;7.80;5.15;;;;;;;;;;5055219;28;20193;-75
2021/12/18 01:25:32;;;;;;;6.45;5.70;;;;;;;;;;5035560;28;20199;-76
2021/12/18 01:28:00;;;;;;;7.25;5.47;;;;;;;;;;5052545;28;20217;-76
2021/12/18 01:30:27;;;;;;;6.68;5.97;;;;;;;;;;5050366;28;20500;-75
2021/12/18 01:32:55;;;;;;;6.55;5.35;;;;;;;;;;5044897;28;20229;-77
2021/12/18 01:35:22;;;;;;;6.38;5.50;;;;;;;;;;5055734;28;20738;-78
2021/12/18 01:37:50;;;;;;;8.45;5.55;;;;;;;;;;5050159;28;20202;-77
2021/12/18 01:40:17;;;;;;;6.95;4.95;;;;;;;;;;5065751;28;20236;-77
2021/12/18 01:45:35;;;;;;;5.47;4.93;;;;;;;;;;5046839;28;20738;-76
2021/12/18 01:51:17;;;;;;;9.85;6.47;;;;;;;;;;4990693;28;20204;-76
2021/12/18 01:53:44;;;;;;;6.47;5.22;;;;;;;;;;4990333;28;20197;-76
2021/12/18 01:56:12;;;;;;;7.88;5.45;;;;;;;;;;5026212;28;20194;-77
2021/12/18 01:58:39;;;;;;;7.68;5.53;;;;;;;;;;5043741;28;20210;-77
2021/12/18 02:01:07;;;;;;;4.82;4.38;;;;;;;;;;5055036;28;20259;-76
2021/12/18 02:03:35;;;;;;;7.80;5.82;;;;;;;;;;5054364;28;20199;-76
2021/12/18 02:06:02;;;;;;;6.63;5.00;;;;;;;;;;5062947;28;20218;-77
2021/12/18 02:08:32;;;;;;;6.03;5.30;;;;;;;;;;5048469;28;20200;-76
2021/12/18 02:11:09;;;;;;;5.32;4.80;;;;;;;;;;5060007;28;20199;-77
2021/12/18 02:13:57;;;;;;;6.88;5.30;;;;;;;;;;5051828;28;20213;-77
2021/12/18 02:21:57;;;;;;;5.55;4.95;;;;;;;;;;5064580;28;20193;-76
2021/12/18 02:24:25;;;;;;;7.65;6.13;;;;;;;;;;5057806;28;20654;-76
2021/12/18 02:26:52;;;;;;;7.43;5.88;;;;;;;;;;5054603;28;20201;-76
2021/12/18 02:29:20;;;;;;;7.22;5.43;;;;;;;;;;5050029;28;20198;-76
2021/12/18 02:31:47;;;;;;;7.38;5.85;;;;;;;;;;5043415;28;20226;-76
2021/12/18 02:34:18;;;;;;;5.88;4.18;;;;;;;;;;5056225;28;20202;-76
2021/12/18 02:36:47;;;;;;;6.75;4.40;;;;;;;;;;5057306;28;20195;-76
2021/12/18 02:39:23;;;;;;;7.13;5.55;;;;;;;;;;5049049;28;20195;-76
2021/12/18 02:42:08;;;;;;;7.53;5.15;;;;;;;;;;5056097;28;20281;-76
2021/12/18 02:44:35;;;;;;;6.57;5.22;;;;;;;;;;5056800;28;20226;-76
2021/12/18 02:47:03;;;;;;;6.72;5.43;;;;;;;;;;5058361;28;20198;-76
2021/12/18 02:49:30;;;;;;;4.38;3.97;;;;;;;;;;5051322;28;20191;-76
2021/12/18 02:51:57;;;;;;;6.63;5.95;;;;;;;;;;5051265;28;20214;-75
2021/12/18 02:54:26;;;;;;;6.35;4.85;;;;;;;;;;5051363;28;20191;-76
2021/12/18 02:56:53;;;;;;;6.65;5.20;;;;;;;;;;5061749;28;20244;-77
2021/12/18 02:59:21;;;;;;;6.95;5.22;;;;;;;;;;5044517;28;20690;-77
2021/12/18 03:01:49;;;;;;;6.80;4.95;;;;;;;;;;5049713;28;20250;-76
2021/12/18 03:04:20;;;;;;;6.97;5.30;;;;;;;;;;5047433;28;20679;-76
2021/12/18 03:06:50;;;;;;;6.10;4.70;;;;;;;;;;5039779;28;20715;-77
2021/12/18 03:09:49;;;;;;;5.78;4.15;;;;;;;;;;5055983;28;20203;-77
2021/12/18 03:23:30;;;;;;;6.88;5.63;;;;;;;;;;5047216;28;20197;-76
2021/12/18 03:25:59;;;;;;;6.00;4.90;;;;;;;;;;5053384;28;20190;-76
2021/12/18 03:28:28;;;;;;;6.82;4.63;;;;;;;;;;5070997;28;20210;-76
2021/12/18 03:30:55;;;;;;;5.53;4.85;;;;;;;;;;5049273;28;20215;-77
2021/12/18 03:33:23;;;;;;;6.50;4.90;;;;;;;;;;5058543;28;20222;-77
2021/12/18 03:35:50;;;;;;;8.52;5.43;;;;;;;;;;5046351;28;20206;-76
2021/12/18 03:38:17;;;;;;;4.55;3.88;;;;;;;;;;5042019;28;20191;-76
2021/12/18 03:40:44;;;;;;;6.68;5.57;;;;;;;;;;5048600;28;20183;-75
2021/12/18 03:43:11;;;;;;;5.47;4.00;;;;;;;;;;5053498;28;20198;-75
2021/12/18 03:45:40;;;;;;;6.20;4.65;;;;;;;;;;5051968;28;20195;-75
2021/12/18 03:48:07;;;;;;;6.60;5.60;;;;;;;;;;5054661;28;20191;-76
2021/12/18 03:50:34;;;;;;;4.57;3.75;;;;;;;;;;5046058;28;20201;-75
2021/12/18 03:53:01;;;;;;;5.80;4.70;;;;;;;;;;5052339;28;20222;-76
2021/12/18 03:55:28;;;;;;;6.60;4.78;;;;;;;;;;5044203;28;20195;-75
2021/12/18 03:57:56;;;;;;;5.75;4.35;;;;;;;;;;5053114;28;20195;-75
2021/12/18 04:00:23;;;;;;;6.38;3.85;;;;;;;;;;5053201;28;20219;-74
2021/12/18 04:02:52;;;;;;;5.43;4.55;;;;;;;;;;5059283;28;20205;-75
2021/12/18 04:05:19;;;;;;;6.07;4.57;;;;;;;;;;5054176;28;20199;-75
2021/12/18 04:07:49;;;;;;;5.25;4.03;;;;;;;;;;5049878;28;20206;-76
2021/12/18 04:10:17;;;;;;;7.25;4.97;;;;;;;;;;5056551;28;20241;-74
2021/12/18 04:12:45;;;;;;;4.50;3.80;;;;;;;;;;5047429;28;20608;-74
2021/12/18 04:15:12;;;;;;;7.07;4.88;;;;;;;;;;5053295;28;20685;-74
2021/12/18 04:17:40;;;;;;;5.60;5.05;;;;;;;;;;5052348;28;20187;-75
2021/12/18 04:20:09;;;;;;;4.63;3.70;;;;;;;;;;5057527;28;20198;-74
2021/12/18 04:22:37;;;;;;;7.05;4.75;;;;;;;;;;5071829;28;20201;-74
2021/12/18 04:25:04;;;;;;;6.47;4.63;;;;;;;;;;5051925;28;20226;-76
2021/12/18 04:27:31;;;;;;;4.30;3.40;;;;;;;;;;5055314;28;20651;-74
2021/12/18 04:29:58;;;;;;;5.82;4.53;;;;;;;;;;5055784;28;20190;-74
2021/12/18 04:32:25;;;;;;;6.70;4.30;;;;;;;;;;5046879;28;20215;-76
2021/12/18 04:34:52;;;;;;;5.32;4.40;;;;;;;;;;5056120;28;20207;-75
2021/12/18 04:37:23;;;;;;;5.55;4.30;;;;;;;;;;5057646;28;20198;-74
2021/12/18 04:39:50;;;;;;;7.22;4.18;;;;;;;;;;5058780;28;20222;-76
2021/12/18 04:42:17;;;;;;;5.70;4.35;;;;;;;;;;5064976;28;20191;-74
2021/12/18 04:44:44;;;;;;;5.35;3.45;;;;;;;;;;5054618;28;20206;-75
2021/12/18 04:47:11;;;;;;;4.90;4.13;;;;;;;;;;5049879;28;20205;-76
2021/12/18 04:49:38;;;;;;;4.75;3.90;;;;;;;;;;5052222;28;20205;-76
2021/12/18 04:52:06;;;;;;;6.47;4.38;;;;;;;;;;5065417;28;20203;-76
2021/12/18 04:54:34;;;;;;;5.80;4.80;;;;;;;;;;5055419;28;20638;-75
2021/12/18 04:57:01;;;;;;;4.60;4.20;;;;;;;;;;5060326;28;20201;-75
2021/12/18 04:59:28;;;;;;;4.93;4.53;;;;;;;;;;5052479;28;20746;-75
2021/12/18 05:01:56;;;;;;;6.28;4.90;;;;;;;;;;5054271;28;20211;-75
2021/12/18 05:04:23;;;;;;;6.25;4.57;;;;;;;;;;5051117;28;20198;-75
2021/12/18 05:06:52;;;;;;;5.30;4.60;;;;;;;;;;5046601;28;20210;-75
2021/12/18 05:09:19;;;;;;;6.80;5.07;;;;;;;;;;5045625;28;20650;-76
2021/12/18 05:11:48;;;;;;;7.00;4.30;;;;;;;;;;5054453;28;20581;-76
2021/12/18 05:14:16;;;;;;;4.57;3.45;;;;;;;;;;5052512;28;20241;-76
2021/12/18 05:16:43;;;;;;;5.93;4.47;;;;;;;;;;5052374;28;20573;-76
2021/12/18 05:19:10;;;;;;;6.10;4.30;;;;;;;;;;5053182;28;20616;-76
2021/12/18 05:21:37;;;;;;;4.45;3.63;;;;;;;;;;5054567;28;20205;-76
2021/12/18 05:24:05;;;;;;;5.20;4.30;;;;;;;;;;5044458;28;20203;-74
2021/12/18 05:26:32;;;;;;;3.80;2.80;;;;;;;;;;5057155;28;20669;-73
2021/12/18 05:29:00;;;;;;;5.63;4.60;;;;;;;;;;5052218;28;20605;-74
2021/12/18 05:31:27;;;;;;;4.03;3.58;;;;;;;;;;5049025;28;20229;-76
2021/12/18 05:33:59;;;;;;;5.47;4.82;;;;;;;;;;5049947;28;20219;-75
2021/12/18 05:36:36;;;;;;;5.63;4.18;;;;;;;;;;5061205;28;20202;-75
2021/12/18 05:39:05;;;;;;;5.60;4.25;;;;;;;;;;5051929;28;20203;-76
2021/12/18 05:41:32;;;;;;;5.50;4.30;;;;;;;;;;5060788;28;20205;-75
2021/12/18 05:44:00;;;;;;;7.13;4.82;;;;;;;;;;5063288;28;20209;-74
2021/12/18 05:46:28;;;;;;;6.78;5.32;;;;;;;;;;5047878;28;20192;-76
2021/12/18 05:48:55;;;;;;;5.20;4.03;;;;;;;;;;5050608;28;20557;-75
2021/12/18 05:51:22;;;;;;;7.70;6.47;;;;;;;;;;5059711;28;20194;-75
2021/12/18 05:53:49;;;;;;;5.72;3.92;;;;;;;;;;5052695;28;20226;-75
2021/12/18 05:56:17;;;;;;;4.70;3.95;;;;;;;;;;5054599;28;20202;-75
2021/12/18 05:58:44;;;;;;;6.07;5.00;;;;;;;;;;5058892;28;20201;-76
2021/12/18 06:01:13;;;;;;;8.65;5.50;;;;;;;;;;5053224;28;20218;-74
2021/12/18 06:03:41;;;;;;;5.60;4.38;;;;;;;;;;5037384;28;20673;-74
2021/12/18 06:06:08;;;;;;;9.02;5.47;;;;;;;;;;5045063;28;20195;-74
2021/12/18 06:08:36;;;;;;;6.25;4.28;;;;;;;;;;5047039;28;20571;-74
2021/12/18 06:11:08;;;;;;;7.60;4.93;;;;;;;;;;5054795;28;20193;-73
2021/12/18 06:13:35;;;;;;;5.40;4.22;;;;;;;;;;5060475;28;20222;-73
2021/12/18 06:16:05;;;;;;;7.88;5.47;;;;;;;;;;5050771;28;20230;-74
2021/12/18 06:18:34;;;;;;;9.18;5.57;;;;;;;;;;5042692;28;20195;-75
2021/12/18 06:21:01;;;;;;;7.20;4.88;;;;;;;;;;5050078;28;20191;-73
2021/12/18 06:23:28;;;;;;;6.55;4.85;;;;;;;;;;5049375;28;20191;-74
2021/12/18 06:25:55;;;;;;;8.10;5.45;;;;;;;;;;5048500;28;20213;-74
2021/12/18 06:28:22;;;;;;;7.35;6.32;;;;;;;;;;5058862;28;20663;-75
2021/12/18 06:30:49;;;;;;;6.55;4.72;;;;;;;;;;5061037;28;20210;-75
2021/12/18 06:33:16;;;;;;;7.00;5.28;;;;;;;;;;5050513;28;20301;-74
2021/12/18 06:35:45;;;;;;;8.40;5.13;;;;;;;;;;5043859;28;20195;-74
2021/12/18 06:38:12;;;;;;;7.68;6.47;;;;;;;;;;5058259;28;20190;-73
2021/12/18 06:40:39;;;;;;;6.07;4.35;;;;;;;;;;5054541;28;20650;-74
2021/12/18 06:43:06;;;;;;;6.68;4.40;;;;;;;;;;5065325;28;20194;-74
2021/12/18 06:45:33;;;;;;;8.25;5.75;;;;;;;;;;5051347;28;20191;-75
2021/12/18 06:48:01;;;;;;;7.38;5.13;;;;;;;;;;5046161;28;20290;-74
2021/12/18 06:50:28;;;;;;;7.55;5.50;;;;;;;;;;5049824;28;20202;-76
2021/12/18 06:52:57;;;;;;;6.97;5.10;;;;;;;;;;5049852;28;20190;-76
2021/12/18 06:55:24;;;;;;;9.25;6.35;;;;;;;;;;5050389;28;20558;-76
2021/12/18 06:57:51;;;;;;;6.40;5.00;;;;;;;;;;5063414;28;20190;-74
2021/12/18 07:00:19;;;;;;;7.88;5.60;;;;;;;;;;5046781;28;20225;-76
2021/12/18 07:02:46;;;;;;;6.97;5.43;;;;;;;;;;5066081;28;20688;-76
2021/12/18 07:05:13;;;;;;;8.43;5.78;;;;;;;;;;5045484;28;20202;-75
2021/12/18 07:07:40;;;;;;;8.82;6.05;;;;;;;;;;5045810;28;20191;-76
2021/12/18 07:10:11;;;;;;;8.63;5.88;;;;;;;;;;5047988;28;20190;-76
2021/12/18 07:12:38;;;;;;;8.90;5.40;;;;;;;;;;5054226;28;20662;-76
2021/12/18 07:15:05;;;;;;;7.32;5.38;;;;;;;;;;5058346;28;20218;-76
2021/12/18 07:17:32;;;;;;;8.57;5.63;;;;;;;;;;5042894;28;20570;-76
2021/12/18 07:19:59;;;;;;;6.57;4.88;;;;;;;;;;5050569;28;20211;-76
2021/12/18 07:22:26;;;;;;;5.47;4.55;;;;;;;;;;5056582;28;20531;-77
2021/12/18 07:24:54;;;;;;;7.00;5.15;;;;;;;;;;5050880;28;20581;-77
2021/12/18 07:27:22;;;;;;;6.20;3.72;;;;;;;;;;5062639;28;20558;-76
2021/12/18 07:29:49;;;;;;;5.28;4.78;;;;;;;;;;5053864;28;20203;-76
2021/12/18 07:32:16;;;;;;;6.80;4.43;;;;;;;;;;5053218;28;20570;-77
2021/12/18 07:34:43;;;;;;;5.10;4.05;;;;;;;;;;5058930;28;20210;-76
2021/12/18 07:37:10;;;;;;;5.70;4.25;;;;;;;;;;5055908;28;20187;-77
2021/12/18 07:39:38;;;;;;;5.88;4.28;;;;;;;;;;5049015;28;20206;-76
2021/12/18 07:42:05;;;;;;;4.30;3.70;;;;;;;;;;5054990;28;20256;-77
2021/12/18 07:44:34;;;;;;;6.97;4.53;;;;;;;;;;5058167;28;20697;-76
2021/12/18 07:47:01;;;;;;;4.90;4.03;;;;;;;;;;5055625;28;20332;-77
2021/12/18 07:49:28;;;;;;;6.28;3.85;;;;;;;;;;5065416;28;20201;-75
2021/12/18 07:51:59;;;;;;;8.00;5.30;;;;;;;;;;5043103;28;20560;-76
2021/12/18 07:54:27;;;;;;;5.35;4.18;;;;;;;;;;5041241;28;20215;-77
2021/12/18 07:56:55;;;;;;;5.05;4.18;;;;;;;;;;5056896;28;20657;-76
2021/12/18 07:59:22;;;;;;;6.35;4.05;;;;;;;;;;5055095;28;20214;-75
2021/12/18 08:01:50;;;;;;;4.82;3.42;;;;;;;;;;5056593;28;20202;-77
2021/12/18 08:04:17;;;;;;;4.43;3.58;;;;;;;;;;5056762;28;20202;-76
2021/12/18 08:06:44;;;;;;;5.25;3.75;;;;;;;;;;5053169;28;20198;-77
2021/12/18 08:09:11;;;;;;;5.32;3.83;;;;;;;;;;5049864;28;20205;-76
2021/12/18 08:11:38;;;;;;;4.78;2.97;;;;;;;;;;5059191;28;20217;-76
2021/12/18 08:14:06;;;;;;;4.35;3.20;;;;;;;;;;5053790;28;20221;-77
2021/12/18 08:16:33;;;;;;;4.43;3.05;;;;;;;;;;5052269;28;20301;-76
2021/12/18 08:19:01;;;;;;;4.18;3.28;;;;;;;;;;5053212;28;20302;-77
2021/12/18 08:21:28;;;;;;;4.47;3.05;;;;;;;;;;5056009;28;20561;-78
2021/12/18 08:23:55;;;;;;;3.88;3.08;;;;;;;;;;5059237;28;20213;-78
2021/12/18 08:26:22;;;;;;;5.10;3.40;;;;;;;;;;5051037;28;20647;-77
2021/12/18 08:28:49;;;;;;;4.00;3.00;;;;;;;;;;5061039;28;20522;-76
2021/12/18 08:31:16;;;;;;;5.30;3.25;;;;;;;;;;5067616;28;20206;-76
2021/12/18 08:33:43;;;;;;;3.75;3.28;;;;;;;;;;5035738;28;20575;-78
2021/12/18 08:36:12;;;;;;;3.45;2.95;;;;;;;;;;5053396;28;20191;-78
2021/12/18 08:38:39;;;;;;;3.83;2.88;;;;;;;;;;5051710;28;20663;-77
2021/12/18 08:41:06;;;;;;;3.95;2.97;;;;;;;;;;5046990;28;20195;-77
2021/12/18 08:43:33;;;;;;;3.58;2.20;;;;;;;;;;5053906;28;20195;-77
2021/12/18 08:46:00;;;;;;;3.20;2.60;;;;;;;;;;5059125;28;20202;-77
2021/12/18 08:48:27;;;;;;;5.55;2.80;;;;;;;;;;5048166;28;20566;-77
2021/12/18 08:50:54;;;;;;;3.30;2.70;;;;;;;;;;5056637;28;20567;-78
2021/12/18 08:53:22;;;;;;;3.35;2.78;;;;;;;;;;5048750;28;20211;-77
2021/12/18 08:55:50;;;;;;;2.40;2.00;;;;;;;;;;5064099;28;20213;-77
2021/12/18 08:58:17;;;;;;;3.17;2.50;;;;;;;;;;5061132;28;20587;-77
2021/12/18 09:00:44;;;;;;;3.75;2.85;;;;;;;;;;5054488;28;20217;-77
2021/12/18 09:03:11;;;;;;;4.20;2.45;;;;;;;;;;5038241;28;20203;-77
2021/12/18 09:05:38;;;;;;;2.83;2.33;;;;;;;;;;5047120;28;20593;-77
2021/12/18 09:08:05;;;;;;;2.35;2.15;;;;;;;;;;5050729;28;20202;-77
2021/12/18 09:10:34;;;;;;;3.67;2.20;;;;;;;;;;5032984;28;20191;-77
2021/12/18 09:13:01;;;;;;;3.67;2.05;;;;;;;;;;5053934;28;20221;-76
2021/12/18 09:15:28;;;;;;;3.35;2.42;;;;;;;;;;5059862;28;20764;-76
2021/12/18 09:17:55;;;;;;;3.30;1.92;;;;;;;;;;5037624;28;20210;-76
2021/12/18 09:20:23;;;;;;;2.40;2.20;;;;;;;;;;5047627;28;20234;-76
2021/12/18 09:22:50;;;;;;;2.97;2.72;;;;;;;;;;5056128;28;20550;-76
2021/12/18 09:25:17;;;;;;;2.50;2.05;;;;;;;;;;5060072;28;20195;-77
2021/12/18 09:27:46;;;;;;;3.60;2.30;;;;;;;;;;5047556;28;20190;-76
2021/12/18 09:30:14;;;;;;;2.85;2.05;;;;;;;;;;5049392;28;20195;-77
2021/12/18 09:32:41;;;;;;;2.05;1.67;;;;;;;;;;5058971;28;20198;-76
2021/12/18 09:35:09;;;;;;;2.22;1.90;;;;;;;;;;5070252;28;20214;-77
2021/12/18 09:37:37;;;;;;;4.60;2.15;;;;;;;;;;5054611;28;20692;-76
2021/12/18 09:40:04;;;;;;;2.20;1.63;;;;;;;;;;5048087;28;20199;-76
2021/12/18 09:42:32;;;;;;;4.85;2.38;;;;;;;;;;5053089;28;20209;-76
2021/12/18 09:45:00;;;;;;;2.60;2.40;;;;;;;;;;5064488;28;20195;-76
2021/12/18 09:47:27;;;;;;;2.10;1.60;;;;;;;;;;5051701;28;20577;-77
2021/12/18 09:49:55;;;;;;;3.20;2.63;;;;;;;;;;5055782;28;20229;-78
2021/12/18 09:52:23;;;;;;;3.17;2.00;;;;;;;;;;5051670;28;20720;-77
2021/12/18 09:54:50;;;;;;;2.13;1.60;;;;;;;;;;5050959;28;20219;-76
2021/12/18 09:57:17;;;;;;;2.97;1.75;;;;;;;;;;5049866;28;20198;-77
2021/12/18 09:59:44;;;;;;;2.58;1.95;;;;;;;;;;5048183;28;20230;-76
2021/12/18 10:02:13;;;;;;;2.42;1.75;;;;;;;;;;5059169;28;20202;-76
2021/12/18 10:04:40;;;;;;;2.72;1.95;;;;;;;;;;5036692;28;20200;-76
2021/12/18 10:07:17;;;;;;;2.70;2.20;;;;;;;;;;5044289;28;20208;-77
2021/12/18 10:09:45;;;;;;;2.75;2.30;;;;;;;;;;5044847;28;20226;-76
2021/12/18 10:12:17;;;;;;;2.53;1.52;;;;;;;;;;5053237;28;20199;-76
2021/12/18 10:14:45;;;;;;;1.90;1.48;;;;;;;;;;5045978;28;20248;-76
2021/12/18 10:17:36;;;;;;;1.63;1.52;;;;;;;;;;5048339;28;20203;-76
2021/12/18 10:20:23;;;;;;;2.00;1.40;;;;;;;;;;5034442;28;20662;-75
2021/12/18 10:22:51;;;;;;;1.90;1.60;;;;;;;;;;5056868;28;20205;-76
2021/12/18 10:25:19;;;;;;;2.67;1.55;;;;;;;;;;5065414;28;20207;-76
2021/12/18 10:27:54;;;;;;;2.13;1.83;;;;;;;;;;5048152;28;20207;-76
2021/12/18 10:30:22;;;;;;;2.33;1.40;;;;;;;;;;5049971;28;20199;-76
2021/12/18 10:32:57;;;;;;;1.90;1.50;;;;;;;;;;5048732;28;20209;-77
2021/12/18 10:35:36;;;;;;;1.60;1.30;;;;;;;;;;5050689;28;20229;-77
2021/12/18 10:38:03;;;;;;;1.23;1.10;;;;;;;;;;5057452;28;20565;-76
2021/12/18 10:40:41;;;;;;;2.20;1.55;;;;;;;;;;5049940;28;20277;-78
2021/12/18 10:43:08;;;;;;;1.60;1.50;;;;;;;;;;5047512;28;20281;-77
2021/12/18 10:45:36;;;;;;;1.83;1.35;;;;;;;;;;5050372;28;20187;-77
2021/12/18 10:48:04;;;;;;;1.75;1.48;;;;;;;;;;5040048;28;20199;-77
2021/12/18 10:50:35;;;;;;;1.58;1.27;;;;;;;;;;5030899;28;20294;-77
2021/12/18 10:53:03;;;;;;;1.85;1.55;;;;;;;;;;5060925;28;20654;-78
2021/12/18 10:55:32;;;;;;;2.08;1.50;;;;;;;;;;5068710;28;20218;-77
2021/12/18 10:58:01;;;;;;;1.98;1.73;;;;;;;;;;5052199;28;20555;-77
2021/12/18 11:00:37;;;;;;;1.67;1.45;;;;;;;;;;5046367;28;20210;-77
2021/12/18 11:03:13;;;;;;;2.10;1.67;;;;;;;;;;5047575;28;20430;-77
2021/12/18 11:05:42;;;;;;;1.85;1.23;;;;;;;;;;5031074;28;20179;-78
2021/12/18 11:08:10;;;;;;;2.03;1.40;;;;;;;;;;5046542;28;20206;-77
2021/12/18 11:10:43;;;;;;;2.97;1.85;;;;;;;;;;5052134;28;20252;-77
2021/12/18 11:15:55;;;;;;;1.45;1.20;;;;;;;;;;5051721;28;20323;-77
2021/12/18 11:18:22;;;;;;;2.75;1.67;;;;;;;;;;5058065;28;20195;-77
2021/12/18 11:20:52;;;;;;;1.50;1.30;;;;;;;;;;5048754;28;20662;-77
2021/12/18 11:23:26;;;;;;;1.92;1.40;;;;;;;;;;5058056;28;20202;-77
2021/12/18 11:25:54;;;;;;;2.10;1.52;;;;;;;;;;5060789;28;20569;-77
2021/12/18 11:28:23;;;;;;;1.70;1.30;;;;;;;;;;5048407;28;20588;-77
2021/12/18 11:30:51;;;;;;;2.00;1.40;;;;;;;;;;5048848;28;20195;-77
2021/12/18 11:33:18;;;;;;;2.05;1.45;;;;;;;;;;5047193;28;20242;-77
2021/12/18 11:35:45;;;;;;;1.45;1.20;;;;;;;;;;5047513;28;20222;-77
2021/12/18 11:38:16;;;;;;;1.70;1.38;;;;;;;;;;5063039;28;20554;-77
2021/12/18 11:40:44;;;;;;;1.92;1.38;;;;;;;;;;5053601;28;20191;-76
2021/12/18 11:43:29;;;;;;;1.73;1.30;;;;;;;;;;5053207;28;20206;-77
2021/12/18 11:45:57;;;;;;;2.38;1.30;;;;;;;;;;5048196;28;20677;-76
2021/12/18 11:48:24;;;;;;;1.90;1.50;;;;;;;;;;5054415;28;20682;-76
2021/12/18 11:50:51;;;;;;;1.48;1.10;;;;;;;;;;5058373;28;20206;-76
2021/12/18 11:53:20;;;;;;;2.58;1.42;;;;;;;;;;5047426;28;20240;-76
2021/12/18 11:55:56;;;;;;;1.60;1.10;;;;;;;;;;5056833;28;20720;-77
2021/12/18 11:58:24;;;;;;;1.58;1.48;;;;;;;;;;5048287;28;20206;-77
2021/12/18 12:00:52;;;;;;;1.30;1.20;;;;;;;;;;5056418;28;20231;-77
2021/12/18 12:03:30;;;;;;;1.50;1.40;;;;;;;;;;5057247;28;20796;-75
2021/12/18 12:05:58;;;;;;;1.65;1.17;;;;;;;;;;5061060;28;20190;-75
2021/12/18 12:08:30;;;;;;;2.35;1.40;;;;;;;;;;5046090;28;20705;-77
2021/12/18 12:11:18;;;;;;;2.10;1.38;;;;;;;;;;5051355;28;20261;-77
2021/12/18 12:13:52;;;;;;;1.17;1.08;;;;;;;;;;5060121;28;20199;-77
2021/12/18 12:16:19;;;;;;;2.88;1.40;;;;;;;;;;5059423;28;20219;-74
2021/12/18 12:19:05;;;;;;;1.77;1.30;;;;;;;;;;5048619;28;20206;-77
2021/12/18 12:21:38;;;;;;;2.38;2.00;;;;;;;;;;5058838;28;20202;-79
2021/12/18 12:24:08;;;;;;;2.03;1.83;;;;;;;;;;5070142;28;20573;-77
2021/12/18 12:26:35;;;;;;;1.90;1.50;;;;;;;;;;5072364;28;20201;-76
2021/12/18 12:29:02;;;;;;;2.03;1.50;;;;;;;;;;5064010;28;20234;-76
2021/12/18 12:31:30;;;;;;;2.20;1.85;;;;;;;;;;5063157;28;20204;-76
2021/12/18 12:34:12;;;;;;;1.60;1.35;;;;;;;;;;5058420;28;20561;-77
2021/12/18 12:36:45;;;;;;;2.20;1.58;;;;;;;;;;5066785;28;20214;-78
2021/12/18 12:39:14;;;;;;;1.80;1.70;;;;;;;;;;5060849;28;20207;-77
2021/12/18 12:41:42;;;;;;;2.75;1.80;;;;;;;;;;5057823;28;20244;-77
2021/12/18 12:44:16;;;;;;;1.42;1.25;;;;;;;;;;5059397;28;20202;-77
2021/12/18 12:46:44;;;;;;;2.30;1.75;;;;;;;;;;5058816;28;20201;-77
2021/12/18 12:49:12;;;;;;;1.40;1.13;;;;;;;;;;5065284;28;20206;-77
2021/12/18 12:51:58;;;;;;;2.72;1.98;;;;;;;;;;5071796;28;20248;-77
2021/12/18 12:54:49;;;;;;;2.83;1.75;;;;;;;;;;5064837;28;20203;-77
2021/12/18 12:57:36;;;;;;;1.65;1.20;;;;;;;;;;5061847;28;20582;-77
2021/12/18 13:00:21;;;;;;;1.30;1.10;;;;;;;;;;5050331;28;20223;-78
2021/12/18 13:02:51;;;;;;;1.80;1.30;;;;;;;;;;5045006;28;20662;-78
2021/12/18 13:05:20;;;;;;;2.33;1.73;;;;;;;;;;5050787;28;20665;-78
2021/12/18 13:07:47;;;;;;;1.85;1.38;;;;;;;;;;5048293;28;20199;-78
2021/12/18 13:10:19;;;;;;;1.60;1.35;;;;;;;;;;5057662;28;20202;-78
2021/12/18 13:12:53;;;;;;;1.77;1.20;;;;;;;;;;5043454;28;20205;-78
2021/12/18 13:15:20;;;;;;;1.42;1.15;;;;;;;;;;5052166;28;20227;-78
2021/12/18 13:17:47;;;;;;;1.73;1.48;;;;;;;;;;5059464;28;20201;-78
2021/12/18 13:20:15;;;;;;;2.00;1.65;;;;;;;;;;5053975;28;20198;-78
2021/12/18 13:22:52;;;;;;;1.42;1.17;;;;;;;;;;5050653;28;20202;-78
2021/12/18 13:25:21;;;;;;;2.40;1.40;;;;;;;;;;5061572;28;20679;-77
2021/12/18 13:28:03;;;;;;;2.05;1.50;;;;;;;;;;5034696;28;20231;-78
2021/12/18 13:30:30;;;;;;;2.47;1.23;;;;;;;;;;5054937;28;20210;-78
2021/12/18 13:32:58;;;;;;;1.58;1.20;;;;;;;;;;5059245;28;20565;-78
2021/12/18 13:35:26;;;;;;;1.45;1.33;;;;;;;;;;5029743;28;20216;-78
2021/12/18 13:37:57;;;;;;;2.40;1.70;;;;;;;;;;5031523;28;20607;-77
2021/12/18 13:40:26;;;;;;;1.90;1.25;;;;;;;;;;5062326;28;20244;-77
2021/12/18 13:43:04;;;;;;;1.95;1.48;;;;;;;;;;5048438;28;20198;-77
2021/12/18 13:45:32;;;;;;;1.50;1.30;;;;;;;;;;5059409;28;20255;-77
2021/12/18 13:48:04;;;;;;;1.40;1.30;;;;;;;;;;5049012;28;20198;-78
2021/12/18 13:50:31;;;;;;;1.33;1.20;;;;;;;;;;5047005;28;20211;-78
2021/12/18 13:53:00;;;;;;;1.88;1.73;;;;;;;;;;5044087;28;20206;-78
2021/12/18 13:55:30;;;;;;;2.00;1.52;;;;;;;;;;5046966;28;20225;-78
2021/12/18 13:57:58;;;;;;;1.90;1.50;;;;;;;;;;5049130;28;20202;-77
2021/12/18 14:00:25;;;;;;;3.08;2.00;;;;;;;;;;5048304;28;20219;-77
2021/12/18 14:02:52;;;;;;;2.03;1.60;;;;;;;;;;5044988;28;20207;-78
2021/12/18 14:05:19;;;;;;;1.90;1.55;;;;;;;;;;5052532;28;20199;-78
2021/12/18 14:07:47;;;;;;;2.17;1.92;;;;;;;;;;5048971;28;20655;-77
2021/12/18 14:10:14;;;;;;;1.55;1.23;;;;;;;;;;5039654;28;20214;-77
2021/12/18 14:12:43;;;;;;;1.60;1.50;;;;;;;;;;5047514;28;20213;-77
2021/12/18 14:15:18;;;;;;;1.65;1.23;;;;;;;;;;5056742;28;20205;-77
2021/12/18 14:17:45;;;;;;;1.50;1.40;;;;;;;;;;5045203;28;20242;-78
2021/12/18 14:20:13;;;;;;;1.42;1.13;;;;;;;;;;5048517;28;20205;-78
2021/12/18 14:22:41;;;;;;;1.30;1.10;;;;;;;;;;5045002;28;20651;-78
2021/12/18 14:25:11;;;;;;;1.77;1.65;;;;;;;;;;5036725;28;20198;-77
2021/12/18 14:27:39;;;;;;;1.20;1.00;;;;;;;;;;5050919;28;20223;-77
2021/12/18 14:30:14;;;;;;;1.30;1.00;;;;;;;;;;5056165;28;20198;-77
2021/12/18 14:32:42;;;;;;;1.45;1.35;;;;;;;;;;5046162;28;20206;-78
2021/12/18 14:35:12;;;;;;;1.75;1.50;;;;;;;;;;5049924;28;20206;-77
2021/12/18 14:37:47;;;;;;;2.97;1.20;;;;;;;;;;5050078;28;20195;-78
2021/12/18 14:40:17;;;;;;;1.90;1.65;;;;;;;;;;5048030;28;20195;-77
2021/12/18 14:42:54;;;;;;;2.13;1.48;;;;;;;;;;5050223;28;20194;-77
2021/12/18 14:45:24;;;;;;;1.70;1.60;;;;;;;;;;5049713;28;20297;-77
2021/12/18 14:47:53;;;;;;;1.52;1.25;;;;;;;;;;5047508;28;20206;-77
2021/12/18 14:50:21;;;;;;;1.88;1.55;;;;;;;;;;5049431;28;20199;-77
2021/12/18 14:52:53;;;;;;;2.00;1.50;;;;;;;;;;5049328;28;20237;-77
2021/12/18 14:55:21;;;;;;;2.35;1.23;;;;;;;;;;5046914;28;20195;-77
2021/12/18 14:57:55;;;;;;;2.30;1.45;;;;;;;;;;5056795;28;20202;-77
2021/12/18 15:00:24;;;;;;;1.95;1.55;;;;;;;;;;5060745;28;20210;-78
2021/12/18 15:03:00;;;;;;;1.63;1.20;;;;;;;;;;5039048;28;20291;-77
2021/12/18 15:05:28;;;;;;;1.40;1.20;;;;;;;;;;5054455;28;20213;-77
2021/12/18 15:07:59;;;;;;;1.80;1.35;;;;;;;;;;5040083;28;20573;-77
2021/12/18 15:10:27;;;;;;;4.18;1.33;;;;;;;;;;5052239;28;20564;-77
2021/12/18 15:12:54;;;;;;;2.03;1.63;;;;;;;;;;5056261;28;20206;-77
2021/12/18 15:15:21;;;;;;;1.30;1.20;;;;;;;;;;5065492;28;20413;-78
2021/12/18 15:17:53;;;;;;;1.75;1.52;;;;;;;;;;5056953;28;20209;-77
2021/12/18 15:20:20;;;;;;;1.40;1.30;;;;;;;;;;5058902;28;20205;-78
2021/12/18 15:22:47;;;;;;;1.55;1.30;;;;;;;;;;5048106;28;20205;-78
2021/12/18 15:25:14;;;;;;;1.90;1.42;;;;;;;;;;5040303;28;20203;-77